createdAt,value
2017-06-18T00:00:06.718Z,1019.79
2017-06-18T00:00:33.190Z,1019.82
2017-06-18T00:01:00.301Z,1019.83
2017-06-18T00:01:26.550Z,1019.81
2017-06-18T00:01:52.822Z,1019.79
2017-06-18T00:02:19.037Z,1019.78
2017-06-18T00:02:45.318Z,1019.78
2017-06-18T00:03:11.499Z,1019.8
2017-06-18T00:03:37.730Z,1019.8
2017-06-18T00:04:03.995Z,1019.81
2017-06-18T00:04:30.209Z,1019.81
2017-06-18T00:04:56.810Z,1019.8
2017-06-18T00:05:23.023Z,1019.8
2017-06-18T00:05:49.285Z,1019.82
2017-06-18T00:06:15.899Z,1019.82
2017-06-18T00:06:42.446Z,1019.78
2017-06-18T00:07:08.697Z,1019.8
2017-06-18T00:07:34.942Z,1019.85
2017-06-18T00:08:01.143Z,1019.82
2017-06-18T00:08:27.405Z,1019.8
2017-06-18T00:08:53.606Z,1019.82
2017-06-18T00:09:19.806Z,1019.82
2017-06-18T00:09:46.014Z,1019.82
2017-06-18T00:10:12.289Z,1019.82
2017-06-18T00:10:38.504Z,1019.83
2017-06-18T00:11:04.798Z,1019.79
2017-06-18T00:11:31.150Z,1019.8
2017-06-18T00:11:57.427Z,1019.79
2017-06-18T00:12:23.996Z,1019.79
2017-06-18T00:12:50.193Z,1019.8
2017-06-18T00:13:16.413Z,1019.77
2017-06-18T00:13:42.615Z,1019.77
2017-06-18T00:14:08.816Z,1019.76
2017-06-18T00:14:35.033Z,1019.76
2017-06-18T00:15:01.283Z,1019.74
2017-06-18T00:15:27.453Z,1019.74
2017-06-18T00:15:53.679Z,1019.75
2017-06-18T00:16:19.988Z,1019.75
2017-06-18T00:16:46.335Z,1019.78
2017-06-18T00:17:12.519Z,1019.73
2017-06-18T00:17:38.728Z,1019.71
2017-06-18T00:18:04.948Z,1019.7
2017-06-18T00:18:31.153Z,1019.7
2017-06-18T00:18:57.370Z,1019.71
2017-06-18T00:19:23.615Z,1019.7
2017-06-18T00:19:50.033Z,1019.73
2017-06-18T00:20:16.247Z,1019.69
2017-06-18T00:20:42.509Z,1019.73
2017-06-18T00:21:08.708Z,1019.67
2017-06-18T00:21:34.919Z,1019.69
2017-06-18T00:22:01.133Z,1019.73
2017-06-18T00:22:27.343Z,1019.68
2017-06-18T00:22:53.543Z,1019.71
2017-06-18T00:23:19.917Z,1019.69
2017-06-18T00:23:46.380Z,1019.71
2017-06-18T00:24:12.577Z,1019.74
2017-06-18T00:24:38.809Z,1019.71
2017-06-18T00:25:05.018Z,1019.73
2017-06-18T00:25:31.221Z,1019.71
2017-06-18T00:25:57.682Z,1019.73
2017-06-18T00:26:23.889Z,1019.72
2017-06-18T00:26:50.149Z,1019.73
2017-06-18T00:27:16.345Z,1019.72
2017-06-18T00:27:42.584Z,1019.73
2017-06-18T00:28:08.767Z,1019.74
2017-06-18T00:28:35.031Z,1019.73
2017-06-18T00:29:01.242Z,1019.74
2017-06-18T00:29:27.528Z,1019.7
2017-06-18T00:29:53.753Z,1019.7
2017-06-18T00:30:20.016Z,1019.68
2017-06-18T00:30:46.263Z,1019.72
2017-06-18T00:31:12.494Z,1019.68
2017-06-18T00:31:38.750Z,1019.72
2017-06-18T00:32:04.962Z,1019.68
2017-06-18T00:32:31.171Z,1019.69
2017-06-18T00:32:57.472Z,1019.71
2017-06-18T00:33:23.677Z,1019.71
2017-06-18T00:33:49.889Z,1019.69
2017-06-18T00:34:16.113Z,1019.72
2017-06-18T00:34:42.355Z,1019.68
2017-06-18T00:35:08.567Z,1019.68
2017-06-18T00:35:34.780Z,1019.71
2017-06-18T00:36:01.063Z,1019.73
2017-06-18T00:36:27.258Z,1019.72
2017-06-18T00:36:53.491Z,1019.74
2017-06-18T00:37:19.740Z,1019.72
2017-06-18T00:37:45.943Z,1019.76
2017-06-18T00:38:12.138Z,1019.73
2017-06-18T00:38:38.327Z,1019.73
2017-06-18T00:39:04.504Z,1019.71
2017-06-18T00:39:30.689Z,1019.71
2017-06-18T00:39:56.892Z,1019.7
2017-06-18T00:40:23.144Z,1019.73
2017-06-18T00:40:49.329Z,1019.71
2017-06-18T00:41:15.509Z,1019.72
2017-06-18T00:41:41.806Z,1019.7
2017-06-18T00:42:07.952Z,1019.68
2017-06-18T00:42:34.077Z,1019.66
2017-06-18T00:43:00.215Z,1019.68
2017-06-18T00:43:26.366Z,1019.66
2017-06-18T00:43:52.486Z,1019.67
2017-06-18T00:44:18.608Z,1019.69
2017-06-18T00:44:44.739Z,1019.67
2017-06-18T00:45:10.841Z,1019.66
2017-06-18T00:45:36.946Z,1019.67
2017-06-18T00:46:03.061Z,1019.65
2017-06-18T00:46:29.171Z,1019.66
2017-06-18T00:46:55.282Z,1019.69
2017-06-18T00:47:21.417Z,1019.66
2017-06-18T00:47:47.529Z,1019.67
2017-06-18T00:48:13.623Z,1019.63
2017-06-18T00:48:39.728Z,1019.67
2017-06-18T00:49:05.831Z,1019.67
2017-06-18T00:49:31.937Z,1019.67
2017-06-18T00:49:58.038Z,1019.69
2017-06-18T00:50:24.148Z,1019.7
2017-06-18T00:50:50.252Z,1019.68
2017-06-18T00:51:16.357Z,1019.67
2017-06-18T00:51:42.452Z,1019.65
2017-06-18T00:52:08.551Z,1019.64
2017-06-18T00:52:34.658Z,1019.68
2017-06-18T00:53:00.749Z,1019.64
2017-06-18T00:53:26.846Z,1019.59
2017-06-18T00:53:52.953Z,1019.64
2017-06-18T00:54:19.048Z,1019.63
2017-06-18T00:54:45.183Z,1019.62
2017-06-18T00:55:11.269Z,1019.6
2017-06-18T00:55:37.395Z,1019.6
2017-06-18T00:56:03.501Z,1019.61
2017-06-18T00:56:29.592Z,1019.56
2017-06-18T00:56:55.716Z,1019.58
2017-06-18T00:57:21.822Z,1019.56
2017-06-18T00:57:47.914Z,1019.59
2017-06-18T00:58:14.007Z,1019.59
2017-06-18T00:58:40.140Z,1019.59
2017-06-18T00:59:06.267Z,1019.6
2017-06-18T00:59:32.379Z,1019.63
2017-06-18T00:59:58.486Z,1019.64
2017-06-18T01:00:24.594Z,1019.57
2017-06-18T01:00:50.734Z,1019.6
2017-06-18T01:01:16.839Z,1019.61
2017-06-18T01:01:42.970Z,1019.64
2017-06-18T01:02:09.059Z,1019.61
2017-06-18T01:02:35.181Z,1019.61
2017-06-18T01:03:01.290Z,1019.62
2017-06-18T01:03:27.381Z,1019.61
2017-06-18T01:03:53.480Z,1019.55
2017-06-18T01:04:19.587Z,1019.61
2017-06-18T01:04:45.681Z,1019.58
2017-06-18T01:05:11.772Z,1019.6
2017-06-18T01:05:37.875Z,1019.56
2017-06-18T01:06:04.002Z,1019.57
2017-06-18T01:06:30.110Z,1019.61
2017-06-18T01:06:56.201Z,1019.53
2017-06-18T01:07:22.297Z,1019.54
2017-06-18T01:07:48.404Z,1019.56
2017-06-18T01:08:14.529Z,1019.56
2017-06-18T01:08:40.668Z,1019.55
2017-06-18T01:09:06.776Z,1019.56
2017-06-18T01:09:32.875Z,1019.55
2017-06-18T01:09:58.966Z,1019.55
2017-06-18T01:10:25.072Z,1019.54
2017-06-18T01:10:51.174Z,1019.54
2017-06-18T01:11:17.325Z,1019.56
2017-06-18T01:11:43.444Z,1019.55
2017-06-18T01:12:09.535Z,1019.57
2017-06-18T01:12:35.642Z,1019.57
2017-06-18T01:13:01.740Z,1019.57
2017-06-18T01:13:27.830Z,1019.56
2017-06-18T01:13:53.967Z,1019.54
2017-06-18T01:14:20.069Z,1019.59
2017-06-18T01:14:46.160Z,1019.57
2017-06-18T01:15:12.289Z,1019.54
2017-06-18T01:15:38.421Z,1019.54
2017-06-18T01:16:04.513Z,1019.55
2017-06-18T01:16:30.610Z,1019.56
2017-06-18T01:16:56.704Z,1019.52
2017-06-18T01:17:22.863Z,1019.52
2017-06-18T01:17:48.988Z,1019.52
2017-06-18T01:18:15.079Z,1019.51
2017-06-18T01:18:41.183Z,1019.49
2017-06-18T01:19:07.290Z,1019.5
2017-06-18T01:19:33.378Z,1019.49
2017-06-18T01:19:59.478Z,1019.52
2017-06-18T01:20:25.586Z,1019.5
2017-06-18T01:20:51.704Z,1019.49
2017-06-18T01:21:17.824Z,1019.49
2017-06-18T01:21:43.932Z,1019.5
2017-06-18T01:22:10.054Z,1019.46
2017-06-18T01:22:36.185Z,1019.48
2017-06-18T01:23:02.332Z,1019.51
2017-06-18T01:23:28.428Z,1019.49
2017-06-18T01:23:54.518Z,1019.46
2017-06-18T01:24:20.652Z,1019.48
2017-06-18T01:24:46.767Z,1019.51
2017-06-18T01:25:12.843Z,1019.5
2017-06-18T01:25:38.948Z,1019.51
2017-06-18T01:26:05.105Z,1019.5
2017-06-18T01:26:31.193Z,1019.52
2017-06-18T01:26:57.319Z,1019.53
2017-06-18T01:27:23.426Z,1019.5
2017-06-18T01:27:49.568Z,1019.53
2017-06-18T01:28:15.701Z,1019.56
2017-06-18T01:28:41.816Z,1019.5
2017-06-18T01:29:07.919Z,1019.53
2017-06-18T01:29:34.026Z,1019.55
2017-06-18T01:30:00.163Z,1019.56
2017-06-18T01:30:26.266Z,1019.55
2017-06-18T01:30:52.372Z,1019.54
2017-06-18T01:31:18.464Z,1019.55
2017-06-18T01:31:44.559Z,1019.54
2017-06-18T01:32:10.669Z,1019.5
2017-06-18T01:32:36.785Z,1019.51
2017-06-18T01:33:02.901Z,1019.49
2017-06-18T01:33:29.004Z,1019.52
2017-06-18T01:33:55.104Z,1019.5
2017-06-18T01:34:21.236Z,1019.51
2017-06-18T01:34:47.326Z,1019.52
2017-06-18T01:35:13.445Z,1019.49
2017-06-18T01:35:39.553Z,1019.51
2017-06-18T01:36:05.648Z,1019.5
2017-06-18T01:36:31.740Z,1019.52
2017-06-18T01:36:57.876Z,1019.49
2017-06-18T01:37:23.973Z,1019.52
2017-06-18T01:37:50.063Z,1019.49
2017-06-18T01:38:16.172Z,1019.51
2017-06-18T01:38:42.272Z,1019.55
2017-06-18T01:39:08.371Z,1019.49
2017-06-18T01:39:34.465Z,1019.55
2017-06-18T01:40:00.555Z,1019.52
2017-06-18T01:40:26.665Z,1019.51
2017-06-18T01:40:52.786Z,1019.53
2017-06-18T01:41:18.876Z,1019.5
2017-06-18T01:41:44.982Z,1019.54
2017-06-18T01:42:11.084Z,1019.5
2017-06-18T01:42:37.175Z,1019.52
2017-06-18T01:43:03.280Z,1019.53
2017-06-18T01:43:29.387Z,1019.48
2017-06-18T01:43:55.497Z,1019.52
2017-06-18T01:44:21.595Z,1019.54
2017-06-18T01:44:47.702Z,1019.51
2017-06-18T01:45:13.794Z,1019.49
2017-06-18T01:45:39.892Z,1019.52
2017-06-18T01:46:06.025Z,1019.54
2017-06-18T01:46:32.142Z,1019.54
2017-06-18T01:46:58.235Z,1019.53
2017-06-18T01:47:24.345Z,1019.53
2017-06-18T01:47:50.443Z,1019.54
2017-06-18T01:48:16.532Z,1019.56
2017-06-18T01:48:42.664Z,1019.52
2017-06-18T01:49:08.791Z,1019.51
2017-06-18T01:49:34.884Z,1019.53
2017-06-18T01:50:01.012Z,1019.52
2017-06-18T01:50:27.104Z,1019.49
2017-06-18T01:50:53.213Z,1019.48
2017-06-18T01:51:19.310Z,1019.49
2017-06-18T01:51:45.400Z,1019.51
2017-06-18T01:52:11.535Z,1019.51
2017-06-18T01:52:37.634Z,1019.51
2017-06-18T01:53:03.726Z,1019.47
2017-06-18T01:53:29.828Z,1019.5
2017-06-18T01:53:57.245Z,1019.52
2017-06-18T01:54:25.052Z,1019.55
2017-06-18T01:54:51.579Z,1019.54
2017-06-18T01:55:19.297Z,1019.5
2017-06-18T01:55:47.092Z,1019.55
2017-06-18T01:56:14.813Z,1019.54
2017-06-18T01:56:41.642Z,1019.54
2017-06-18T01:57:09.313Z,1019.58
2017-06-18T01:57:37.234Z,1019.57
2017-06-18T01:58:04.443Z,1019.58
2017-06-18T01:58:30.543Z,1019.6
2017-06-18T01:58:56.651Z,1019.62
2017-06-18T01:59:22.768Z,1019.59
2017-06-18T01:59:48.863Z,1019.62
2017-06-18T02:00:14.972Z,1019.57
2017-06-18T02:00:41.089Z,1019.62
2017-06-18T02:01:07.180Z,1019.63
2017-06-18T02:01:33.283Z,1019.62
2017-06-18T02:01:59.384Z,1019.6
2017-06-18T02:02:25.491Z,1019.64
2017-06-18T02:02:51.606Z,1019.6
2017-06-18T02:03:17.702Z,1019.64
2017-06-18T02:03:43.863Z,1019.61
2017-06-18T02:04:10.013Z,1019.65
2017-06-18T02:04:36.115Z,1019.6
2017-06-18T02:05:02.263Z,1019.56
2017-06-18T02:05:28.385Z,1019.59
2017-06-18T02:05:54.477Z,1019.55
2017-06-18T02:06:20.584Z,1019.6
2017-06-18T02:06:46.712Z,1019.56
2017-06-18T02:07:12.812Z,1019.6
2017-06-18T02:07:38.907Z,1019.54
2017-06-18T02:08:04.996Z,1019.57
2017-06-18T02:08:31.110Z,1019.56
2017-06-18T02:08:57.233Z,1019.55
2017-06-18T02:09:23.323Z,1019.54
2017-06-18T02:09:49.428Z,1019.57
2017-06-18T02:10:15.530Z,1019.58
2017-06-18T02:10:41.622Z,1019.52
2017-06-18T02:11:07.749Z,1019.54
2017-06-18T02:11:33.856Z,1019.54
2017-06-18T02:11:59.944Z,1019.55
2017-06-18T02:12:26.042Z,1019.55
2017-06-18T02:12:52.138Z,1019.51
2017-06-18T02:13:18.245Z,1019.53
2017-06-18T02:13:44.372Z,1019.53
2017-06-18T02:14:10.462Z,1019.55
2017-06-18T02:14:36.567Z,1019.52
2017-06-18T02:15:02.672Z,1019.5
2017-06-18T02:15:28.785Z,1019.52
2017-06-18T02:15:54.884Z,1019.5
2017-06-18T02:16:20.992Z,1019.46
2017-06-18T02:16:47.083Z,1019.5
2017-06-18T02:17:13.206Z,1019.52
2017-06-18T02:17:39.311Z,1019.5
2017-06-18T02:18:05.405Z,1019.5
2017-06-18T02:18:31.511Z,1019.49
2017-06-18T02:18:57.599Z,1019.5
2017-06-18T02:19:23.700Z,1019.5
2017-06-18T02:19:49.806Z,1019.53
2017-06-18T02:20:15.920Z,1019.55
2017-06-18T02:20:42.016Z,1019.54
2017-06-18T02:21:08.150Z,1019.54
2017-06-18T02:21:34.275Z,1019.52
2017-06-18T02:22:00.413Z,1019.51
2017-06-18T02:22:26.522Z,1019.56
2017-06-18T02:22:52.645Z,1019.57
2017-06-18T02:23:18.785Z,1019.47
2017-06-18T02:23:44.917Z,1019.5
2017-06-18T02:24:11.062Z,1019.53
2017-06-18T02:24:37.168Z,1019.56
2017-06-18T02:25:03.261Z,1019.52
2017-06-18T02:25:29.356Z,1019.51
2017-06-18T02:25:55.465Z,1019.55
2017-06-18T02:26:21.561Z,1019.54
2017-06-18T02:26:47.649Z,1019.51
2017-06-18T02:27:13.756Z,1019.53
2017-06-18T02:27:39.856Z,1019.54
2017-06-18T02:28:05.971Z,1019.52
2017-06-18T02:28:32.103Z,1019.5
2017-06-18T02:28:58.211Z,1019.48
2017-06-18T02:29:24.298Z,1019.52
2017-06-18T02:29:50.397Z,1019.52
2017-06-18T02:30:16.504Z,1019.52
2017-06-18T02:30:42.596Z,1019.52
2017-06-18T02:31:08.718Z,1019.53
2017-06-18T02:31:34.852Z,1019.55
2017-06-18T02:32:00.946Z,1019.54
2017-06-18T02:32:27.037Z,1019.54
2017-06-18T02:32:53.147Z,1019.55
2017-06-18T02:33:19.244Z,1019.53
2017-06-18T02:33:45.335Z,1019.59
2017-06-18T02:34:11.441Z,1019.59
2017-06-18T02:34:37.540Z,1019.58
2017-06-18T02:35:03.640Z,1019.55
2017-06-18T02:35:29.733Z,1019.58
2017-06-18T02:35:55.823Z,1019.6
2017-06-18T02:36:21.932Z,1019.57
2017-06-18T02:36:48.083Z,1019.57
2017-06-18T02:37:14.173Z,1019.58
2017-06-18T02:37:40.278Z,1019.6
2017-06-18T02:38:06.405Z,1019.56
2017-06-18T02:38:32.495Z,1019.59
2017-06-18T02:38:58.651Z,1019.6
2017-06-18T02:39:24.757Z,1019.57
2017-06-18T02:39:50.870Z,1019.58
2017-06-18T02:40:16.973Z,1019.52
2017-06-18T02:40:43.067Z,1019.58
2017-06-18T02:41:09.197Z,1019.56
2017-06-18T02:41:35.355Z,1019.54
2017-06-18T02:42:01.447Z,1019.54
2017-06-18T02:42:27.549Z,1019.55
2017-06-18T02:42:53.682Z,1019.56
2017-06-18T02:43:19.771Z,1019.53
2017-06-18T02:43:45.922Z,1019.55
2017-06-18T02:44:12.083Z,1019.58
2017-06-18T02:44:38.178Z,1019.56
2017-06-18T02:45:04.272Z,1019.55
2017-06-18T02:45:30.378Z,1019.58
2017-06-18T02:45:56.496Z,1019.58
2017-06-18T02:46:22.604Z,1019.54
2017-06-18T02:46:48.741Z,1019.56
2017-06-18T02:47:14.841Z,1019.58
2017-06-18T02:47:40.943Z,1019.58
2017-06-18T02:48:07.062Z,1019.6
2017-06-18T02:48:33.158Z,1019.55
2017-06-18T02:48:59.263Z,1019.61
2017-06-18T02:49:25.358Z,1019.59
2017-06-18T02:49:51.474Z,1019.61
2017-06-18T02:50:17.611Z,1019.61
2017-06-18T02:50:43.736Z,1019.61
2017-06-18T02:51:09.853Z,1019.6
2017-06-18T02:51:35.960Z,1019.63
2017-06-18T02:52:02.054Z,1019.62
2017-06-18T02:52:28.159Z,1019.62
2017-06-18T02:52:54.254Z,1019.62
2017-06-18T02:53:20.344Z,1019.64
2017-06-18T02:53:46.482Z,1019.61
2017-06-18T02:54:12.579Z,1019.64
2017-06-18T02:54:38.669Z,1019.61
2017-06-18T02:55:04.775Z,1019.62
2017-06-18T02:55:30.904Z,1019.63
2017-06-18T02:55:57.019Z,1019.67
2017-06-18T02:56:23.123Z,1019.62
2017-06-18T02:56:49.231Z,1019.67
2017-06-18T02:57:15.323Z,1019.63
2017-06-18T02:57:41.419Z,1019.67
2017-06-18T02:58:07.510Z,1019.66
2017-06-18T02:58:33.615Z,1019.67
2017-06-18T02:58:59.717Z,1019.64
2017-06-18T02:59:25.806Z,1019.66
2017-06-18T02:59:51.962Z,1019.67
2017-06-18T03:00:18.070Z,1019.65
2017-06-18T03:00:44.156Z,1019.66
2017-06-18T03:01:10.281Z,1019.67
2017-06-18T03:01:36.413Z,1019.64
2017-06-18T03:02:02.504Z,1019.64
2017-06-18T03:02:28.601Z,1019.64
2017-06-18T03:02:54.698Z,1019.65
2017-06-18T03:03:20.807Z,1019.65
2017-06-18T03:03:46.934Z,1019.67
2017-06-18T03:04:13.022Z,1019.66
2017-06-18T03:04:39.123Z,1019.69
2017-06-18T03:05:05.256Z,1019.69
2017-06-18T03:05:31.347Z,1019.68
2017-06-18T03:05:57.442Z,1019.7
2017-06-18T03:06:23.549Z,1019.71
2017-06-18T03:06:49.671Z,1019.69
2017-06-18T03:07:15.787Z,1019.72
2017-06-18T03:07:41.896Z,1019.74
2017-06-18T03:08:07.994Z,1019.7
2017-06-18T03:08:34.105Z,1019.7
2017-06-18T03:09:00.219Z,1019.75
2017-06-18T03:09:26.317Z,1019.73
2017-06-18T03:09:52.452Z,1019.73
2017-06-18T03:10:18.546Z,1019.74
2017-06-18T03:10:44.637Z,1019.74
2017-06-18T03:11:10.775Z,1019.7
2017-06-18T03:11:36.872Z,1019.69
2017-06-18T03:12:02.962Z,1019.73
2017-06-18T03:12:29.099Z,1019.72
2017-06-18T03:12:55.200Z,1019.7
2017-06-18T03:13:21.290Z,1019.7
2017-06-18T03:13:47.418Z,1019.7
2017-06-18T03:14:13.552Z,1019.7
2017-06-18T03:14:39.639Z,1019.7
2017-06-18T03:15:05.763Z,1019.72
2017-06-18T03:15:31.897Z,1019.72
2017-06-18T03:15:57.987Z,1019.68
2017-06-18T03:16:24.110Z,1019.71
2017-06-18T03:16:50.217Z,1019.72
2017-06-18T03:17:16.311Z,1019.71
2017-06-18T03:17:42.402Z,1019.74
2017-06-18T03:18:08.512Z,1019.7
2017-06-18T03:18:34.609Z,1019.71
2017-06-18T03:19:00.723Z,1019.69
2017-06-18T03:19:26.828Z,1019.74
2017-06-18T03:19:52.923Z,1019.75
2017-06-18T03:20:19.059Z,1019.74
2017-06-18T03:20:45.151Z,1019.75
2017-06-18T03:21:11.242Z,1019.72
2017-06-18T03:21:37.353Z,1019.74
2017-06-18T03:22:03.477Z,1019.73
2017-06-18T03:22:29.595Z,1019.72
2017-06-18T03:22:55.755Z,1019.72
2017-06-18T03:23:21.881Z,1019.69
2017-06-18T03:23:47.972Z,1019.7
2017-06-18T03:24:14.075Z,1019.78
2017-06-18T03:24:40.210Z,1019.72
2017-06-18T03:25:06.304Z,1019.71
2017-06-18T03:25:32.429Z,1019.71
2017-06-18T03:25:58.545Z,1019.74
2017-06-18T03:26:24.651Z,1019.73
2017-06-18T03:26:50.777Z,1019.71
2017-06-18T03:27:16.871Z,1019.7
2017-06-18T03:27:43.020Z,1019.72
2017-06-18T03:28:09.155Z,1019.72
2017-06-18T03:28:35.244Z,1019.71
2017-06-18T03:29:01.344Z,1019.69
2017-06-18T03:29:27.475Z,1019.69
2017-06-18T03:29:53.566Z,1019.69
2017-06-18T03:30:19.687Z,1019.72
2017-06-18T03:30:45.812Z,1019.69
2017-06-18T03:31:11.943Z,1019.72
2017-06-18T03:31:38.075Z,1019.71
2017-06-18T03:32:04.161Z,1019.7
2017-06-18T03:32:30.262Z,1019.71
2017-06-18T03:32:56.397Z,1019.7
2017-06-18T03:33:22.488Z,1019.68
2017-06-18T03:33:48.585Z,1019.69
2017-06-18T03:34:14.690Z,1019.7
2017-06-18T03:34:40.783Z,1019.69
2017-06-18T03:35:06.875Z,1019.69
2017-06-18T03:35:32.991Z,1019.68
2017-06-18T03:35:59.083Z,1019.66
2017-06-18T03:36:25.239Z,1019.69
2017-06-18T03:36:51.330Z,1019.68
2017-06-18T03:37:17.427Z,1019.67
2017-06-18T03:37:43.534Z,1019.71
2017-06-18T03:38:09.627Z,1019.69
2017-06-18T03:38:35.718Z,1019.69
2017-06-18T03:39:01.828Z,1019.7
2017-06-18T03:39:27.954Z,1019.7
2017-06-18T03:39:54.070Z,1019.71
2017-06-18T03:40:20.178Z,1019.69
2017-06-18T03:40:46.278Z,1019.71
2017-06-18T03:41:12.368Z,1019.68
2017-06-18T03:41:38.472Z,1019.71
2017-06-18T03:42:04.559Z,1019.69
2017-06-18T03:42:30.668Z,1019.69
2017-06-18T03:42:56.764Z,1019.73
2017-06-18T03:43:22.854Z,1019.73
2017-06-18T03:43:48.959Z,1019.73
2017-06-18T03:44:15.112Z,1019.7
2017-06-18T03:44:41.207Z,1019.7
2017-06-18T03:45:07.306Z,1019.74
2017-06-18T03:45:33.413Z,1019.73
2017-06-18T03:45:59.523Z,1019.71
2017-06-18T03:46:25.678Z,1019.76
2017-06-18T03:46:51.787Z,1019.72
2017-06-18T03:47:17.871Z,1019.71
2017-06-18T03:47:43.974Z,1019.74
2017-06-18T03:48:10.063Z,1019.73
2017-06-18T03:48:36.201Z,1019.72
2017-06-18T03:49:02.322Z,1019.72
2017-06-18T03:49:28.410Z,1019.73
2017-06-18T03:49:54.510Z,1019.75
2017-06-18T03:50:20.615Z,1019.75
2017-06-18T03:50:46.706Z,1019.75
2017-06-18T03:51:12.805Z,1019.71
2017-06-18T03:51:38.909Z,1019.75
2017-06-18T03:52:05.001Z,1019.75
2017-06-18T03:52:31.116Z,1019.75
2017-06-18T03:52:57.247Z,1019.72
2017-06-18T03:53:23.347Z,1019.72
2017-06-18T03:53:49.453Z,1019.74
2017-06-18T03:54:15.545Z,1019.72
2017-06-18T03:54:41.645Z,1019.74
2017-06-18T03:55:07.748Z,1019.75
2017-06-18T03:55:33.841Z,1019.73
2017-06-18T03:55:59.954Z,1019.77
2017-06-18T03:56:26.066Z,1019.77
2017-06-18T03:56:52.165Z,1019.76
2017-06-18T03:57:18.256Z,1019.78
2017-06-18T03:57:44.359Z,1019.74
2017-06-18T03:58:10.560Z,1019.77
2017-06-18T03:58:36.677Z,1019.77
2017-06-18T03:59:02.779Z,1019.77
2017-06-18T03:59:28.913Z,1019.78
2017-06-18T03:59:55.002Z,1019.76
2017-06-18T04:00:21.101Z,1019.8
2017-06-18T04:00:47.208Z,1019.81
2017-06-18T04:01:13.298Z,1019.79
2017-06-18T04:01:39.443Z,1019.78
2017-06-18T04:02:05.582Z,1019.77
2017-06-18T04:02:31.673Z,1019.8
2017-06-18T04:02:57.765Z,1019.79
2017-06-18T04:03:23.877Z,1019.75
2017-06-18T04:03:49.975Z,1019.78
2017-06-18T04:04:16.076Z,1019.82
2017-06-18T04:04:42.167Z,1019.77
2017-06-18T04:05:08.265Z,1019.79
2017-06-18T04:05:34.370Z,1019.79
2017-06-18T04:06:00.464Z,1019.81
2017-06-18T04:06:26.555Z,1019.79
2017-06-18T04:06:52.664Z,1019.79
2017-06-18T04:07:18.787Z,1019.8
2017-06-18T04:07:44.879Z,1019.79
2017-06-18T04:08:10.987Z,1019.8
2017-06-18T04:08:37.112Z,1019.79
2017-06-18T04:09:03.201Z,1019.78
2017-06-18T04:09:29.305Z,1019.79
2017-06-18T04:09:55.395Z,1019.78
2017-06-18T04:10:21.504Z,1019.77
2017-06-18T04:10:47.600Z,1019.77
2017-06-18T04:11:13.691Z,1019.79
2017-06-18T04:11:39.797Z,1019.79
2017-06-18T04:12:05.925Z,1019.79
2017-06-18T04:12:32.015Z,1019.78
2017-06-18T04:12:58.116Z,1019.81
2017-06-18T04:13:24.223Z,1019.81
2017-06-18T04:13:50.312Z,1019.81
2017-06-18T04:14:16.413Z,1019.8
2017-06-18T04:14:42.522Z,1019.78
2017-06-18T04:15:08.638Z,1019.78
2017-06-18T04:15:34.742Z,1019.83
2017-06-18T04:16:00.831Z,1019.77
2017-06-18T04:16:26.933Z,1019.84
2017-06-18T04:16:53.039Z,1019.81
2017-06-18T04:17:19.127Z,1019.81
2017-06-18T04:17:45.229Z,1019.84
2017-06-18T04:18:11.334Z,1019.82
2017-06-18T04:18:37.426Z,1019.78
2017-06-18T04:19:03.547Z,1019.77
2017-06-18T04:19:29.656Z,1019.8
2017-06-18T04:19:55.751Z,1019.77
2017-06-18T04:20:21.866Z,1019.78
2017-06-18T04:20:47.969Z,1019.76
2017-06-18T04:21:14.094Z,1019.76
2017-06-18T04:21:40.199Z,1019.73
2017-06-18T04:22:06.291Z,1019.78
2017-06-18T04:22:32.388Z,1019.77
2017-06-18T04:22:58.522Z,1019.77
2017-06-18T04:23:24.645Z,1019.75
2017-06-18T04:23:50.735Z,1019.77
2017-06-18T04:24:16.844Z,1019.78
2017-06-18T04:24:42.940Z,1019.74
2017-06-18T04:25:09.032Z,1019.75
2017-06-18T04:25:35.162Z,1019.72
2017-06-18T04:26:01.265Z,1019.72
2017-06-18T04:26:27.365Z,1019.73
2017-06-18T04:26:53.460Z,1019.72
2017-06-18T04:27:19.550Z,1019.72
2017-06-18T04:27:45.658Z,1019.71
2017-06-18T04:28:11.756Z,1019.69
2017-06-18T04:28:37.871Z,1019.71
2017-06-18T04:29:04.030Z,1019.69
2017-06-18T04:29:30.130Z,1019.69
2017-06-18T04:29:56.245Z,1019.69
2017-06-18T04:30:22.375Z,1019.69
2017-06-18T04:30:48.482Z,1019.73
2017-06-18T04:31:14.571Z,1019.71
2017-06-18T04:31:40.666Z,1019.69
2017-06-18T04:32:06.809Z,1019.7
2017-06-18T04:32:32.913Z,1019.7
2017-06-18T04:32:59.013Z,1019.69
2017-06-18T04:33:25.104Z,1019.67
2017-06-18T04:33:51.208Z,1019.72
2017-06-18T04:34:17.313Z,1019.7
2017-06-18T04:34:43.401Z,1019.7
2017-06-18T04:35:09.502Z,1019.67
2017-06-18T04:35:35.636Z,1019.7
2017-06-18T04:36:01.726Z,1019.67
2017-06-18T04:36:27.824Z,1019.67
2017-06-18T04:36:53.931Z,1019.66
2017-06-18T04:37:20.051Z,1019.68
2017-06-18T04:37:46.155Z,1019.69
2017-06-18T04:38:12.268Z,1019.69
2017-06-18T04:38:38.368Z,1019.69
2017-06-18T04:39:04.476Z,1019.75
2017-06-18T04:39:30.596Z,1019.74
2017-06-18T04:39:56.695Z,1019.8
2017-06-18T04:40:22.833Z,1019.81
2017-06-18T04:40:48.949Z,1019.81
2017-06-18T04:41:15.040Z,1019.85
2017-06-18T04:41:41.149Z,1019.78
2017-06-18T04:42:07.246Z,1019.75
2017-06-18T04:42:33.385Z,1019.79
2017-06-18T04:42:59.521Z,1019.76
2017-06-18T04:43:25.620Z,1019.73
2017-06-18T04:43:51.736Z,1019.71
2017-06-18T04:44:17.839Z,1019.72
2017-06-18T04:44:43.945Z,1019.71
2017-06-18T04:45:10.033Z,1019.71
2017-06-18T04:45:36.136Z,1019.72
2017-06-18T04:46:02.244Z,1019.7
2017-06-18T04:46:28.335Z,1019.72
2017-06-18T04:46:54.432Z,1019.72
2017-06-18T04:47:20.540Z,1019.7
2017-06-18T04:47:46.635Z,1019.75
2017-06-18T04:48:12.727Z,1019.66
2017-06-18T04:48:38.831Z,1019.71
2017-06-18T04:49:04.963Z,1019.71
2017-06-18T04:49:31.069Z,1019.7
2017-06-18T04:49:57.161Z,1019.69
2017-06-18T04:50:23.258Z,1019.68
2017-06-18T04:50:49.366Z,1019.71
2017-06-18T04:51:15.509Z,1019.68
2017-06-18T04:51:41.627Z,1019.7
2017-06-18T04:52:07.764Z,1019.68
2017-06-18T04:52:33.865Z,1019.68
2017-06-18T04:52:59.978Z,1019.7
2017-06-18T04:53:26.085Z,1019.73
2017-06-18T04:53:52.216Z,1019.65
2017-06-18T04:54:18.318Z,1019.69
2017-06-18T04:54:44.410Z,1019.73
2017-06-18T04:55:10.502Z,1019.74
2017-06-18T04:55:36.614Z,1019.72
2017-06-18T04:56:02.710Z,1019.7
2017-06-18T04:56:28.804Z,1019.69
2017-06-18T04:56:54.914Z,1019.69
2017-06-18T04:57:21.016Z,1019.73
2017-06-18T04:57:47.131Z,1019.74
2017-06-18T04:58:13.234Z,1019.73
2017-06-18T04:58:39.342Z,1019.72
2017-06-18T04:59:05.432Z,1019.69
2017-06-18T04:59:31.537Z,1019.69
2017-06-18T04:59:57.632Z,1019.73
2017-06-18T05:00:23.740Z,1019.73
2017-06-18T05:00:49.841Z,1019.72
2017-06-18T05:01:15.933Z,1019.76
2017-06-18T05:01:42.066Z,1019.74
2017-06-18T05:02:08.178Z,1019.76
2017-06-18T05:02:34.267Z,1019.8
2017-06-18T05:03:00.397Z,1019.76
2017-06-18T05:03:26.805Z,1019.79
2017-06-18T05:03:52.928Z,1019.79
2017-06-18T05:04:19.028Z,1019.78
2017-06-18T05:04:45.136Z,1019.77
2017-06-18T05:05:11.311Z,1019.82
2017-06-18T05:05:37.474Z,1019.8
2017-06-18T05:06:03.538Z,1019.81
2017-06-18T05:06:29.641Z,1019.79
2017-06-18T05:06:55.781Z,1019.78
2017-06-18T05:07:21.901Z,1019.83
2017-06-18T05:07:48.004Z,1019.83
2017-06-18T05:08:14.137Z,1019.8
2017-06-18T05:08:40.234Z,1019.78
2017-06-18T05:09:06.353Z,1019.77
2017-06-18T05:09:32.463Z,1019.78
2017-06-18T05:09:58.560Z,1019.74
2017-06-18T05:10:24.653Z,1019.76
2017-06-18T05:10:50.789Z,1019.76
2017-06-18T05:11:16.911Z,1019.8
2017-06-18T05:11:43.049Z,1019.76
2017-06-18T05:12:09.146Z,1019.78
2017-06-18T05:12:35.238Z,1019.75
2017-06-18T05:13:01.352Z,1019.75
2017-06-18T05:13:27.504Z,1019.7
2017-06-18T05:13:53.596Z,1019.72
2017-06-18T05:14:19.705Z,1019.63
2017-06-18T05:14:45.808Z,1019.68
2017-06-18T05:15:11.902Z,1019.7
2017-06-18T05:15:38.008Z,1019.74
2017-06-18T05:16:04.147Z,1019.74
2017-06-18T05:16:30.241Z,1019.71
2017-06-18T05:16:56.343Z,1019.69
2017-06-18T05:17:22.458Z,1019.71